Aérodrome :
LOGIN :

S'inscrire | Disclaimer

   EN    FR    IT 

 










Légende :    VFR   VFR Marginal   IFR   IFR Intensif   IFR Très Intensif
Visi : 
Plafond : 
>= 8 km
>= 3000ft
5 à 8 km
1000 à 3000 ft
1500m à 5 km
500 à 1000 ft
800 à 1500m
200 à 500 ft
< 800m
< 200 ft
Symboles :   Orages  Brouillard  Fortes neiges  Fortes précipitations  Vent > 20 kt
SIGMETs :   Divers  Orages  Givrage  Turbulence  Onde Orograph.  Cendres Volcan.







- Altitude de l'aérodrome : 1036 ft
- Code IATA : ERF


EDDE - Erfurt

DERNIER METAR :
  • 250620Z 28005KT 9999 BKN026 BKN050 13/11 Q1023 NOSIG

METARs EXPIRÉS :
  • 250550Z 27004KT 9999 BKN023 BKN050 13/10 Q1023 NOSIG
  • 250520Z 24004KT 210V280 9999 SCT023 BKN050 12/10 Q1022 NOSIG
  • 250450Z 22004KT 9999 BKN023 BKN050 12/10 Q1022 NOSIG
  • 250420Z 31003KT 270V340 9999 BKN023 11/11 Q1022 NOSIG
  • 250350Z 27004KT 9999 BKN024 11/10 Q1022 NOSIG

TAF TAF EDDE
Valide du 25 à 06h jusqu'au 26 à 06h UTC


250500Z 2506/2606 31005KT CAVOK
Pas de NOTAMs connus pour ce terrain.



MET'MAP, la Météo Aéronautique d'un coup d'oeil ! - Copyright ORBIFLY Décembre 2007 - Disclaimer

ORBIFLY MET'MAP TEAM :

Programmation & Développement : Alexandra Zaïnal
Conception & Développement : Baudouin d'Aumeries
Co-Programmation & Développement : Marc-Olivier Méhu
Soutien technique & logistique : Manuel Goepfert

Contact : metmap@orbifly.com




SOURCES & CREDITS :

   NOAA